createdAt,value
2018-07-11T00:00:23.181Z,14.00
2018-07-11T00:02:50.411Z,13.97
2018-07-11T00:05:17.699Z,13.97
2018-07-11T00:07:44.969Z,13.97
2018-07-11T00:10:12.277Z,13.97
2018-07-11T00:12:39.503Z,13.96
2018-07-11T00:15:06.866Z,13.95
2018-07-11T00:20:24.310Z,13.98
2018-07-11T00:22:51.617Z,13.89
2018-07-11T00:25:18.908Z,13.75
2018-07-11T00:27:46.175Z,13.72
2018-07-11T00:30:13.468Z,13.77
2018-07-11T00:32:40.692Z,13.81
2018-07-11T00:35:08.006Z,13.83
2018-07-11T00:37:35.274Z,13.85
2018-07-11T00:40:02.617Z,13.87
2018-07-11T00:42:29.913Z,13.87
2018-07-11T00:44:57.226Z,13.83
2018-07-11T00:47:24.515Z,13.83
2018-07-11T00:49:51.798Z,13.82
2018-07-11T00:52:19.323Z,13.83
2018-07-11T00:54:46.636Z,13.83
2018-07-11T00:57:14.102Z,13.85
2018-07-11T00:59:41.560Z,13.82
2018-07-11T01:02:08.842Z,13.83
2018-07-11T01:04:36.121Z,13.87
2018-07-11T01:07:05.184Z,13.88
2018-07-11T01:09:46.138Z,13.91
2018-07-11T01:12:13.433Z,13.94
2018-07-11T01:14:40.737Z,13.97
2018-07-11T01:17:14.547Z,13.99
2018-07-11T01:19:42.714Z,13.95
2018-07-11T01:22:10.024Z,13.91
2018-07-11T01:24:37.293Z,13.90
2018-07-11T01:27:04.922Z,13.94
2018-07-11T01:29:32.168Z,13.96
2018-07-11T01:31:59.479Z,13.96
2018-07-11T01:34:26.745Z,13.93
2018-07-11T01:36:54.274Z,13.90
2018-07-11T01:39:21.553Z,13.87
2018-07-11T01:41:48.828Z,13.88
2018-07-11T01:44:16.109Z,13.85
2018-07-11T01:46:45.978Z,13.82
2018-07-11T01:49:13.506Z,13.84
2018-07-11T01:53:47.906Z,13.83
2018-07-11T01:56:15.222Z,13.76
2018-07-11T01:58:44.494Z,13.73
2018-07-11T02:01:12.017Z,13.71
2018-07-11T02:03:39.327Z,13.71
2018-07-11T02:06:07.232Z,13.75
2018-07-11T02:08:34.735Z,13.80
2018-07-11T02:11:02.042Z,13.81
2018-07-11T02:13:31.497Z,13.81
2018-07-11T02:15:58.805Z,13.83
2018-07-11T02:18:27.768Z,13.84
2018-07-11T02:20:55.581Z,13.80
2018-07-11T02:23:23.480Z,13.79
2018-07-11T02:25:50.774Z,13.79
2018-07-11T02:28:18.542Z,13.80
2018-07-11T02:30:45.862Z,13.79
2018-07-11T02:33:13.153Z,13.82
2018-07-11T02:35:41.286Z,13.77
2018-07-11T02:38:08.599Z,13.70
2018-07-11T02:40:35.913Z,13.73
2018-07-11T02:43:03.184Z,13.67
2018-07-11T02:45:30.514Z,13.71
2018-07-11T02:47:57.797Z,13.75
2018-07-11T02:50:25.164Z,13.74
2018-07-11T02:52:52.471Z,13.67
2018-07-11T02:55:19.741Z,13.69
2018-07-11T02:57:47.100Z,13.65
2018-07-11T03:00:14.361Z,13.63
2018-07-11T03:02:41.703Z,13.63
2018-07-11T03:05:09.118Z,13.62
2018-07-11T03:07:36.506Z,13.62
2018-07-11T03:10:04.027Z,13.60
2018-07-11T03:12:31.501Z,13.66
2018-07-11T03:14:58.785Z,13.62
2018-07-11T03:17:26.452Z,13.57
2018-07-11T03:19:54.852Z,13.52
2018-07-11T03:22:23.629Z,13.50
2018-07-11T03:24:51.514Z,13.51
2018-07-11T03:27:18.894Z,13.54
2018-07-11T03:29:46.256Z,13.58
2018-07-11T03:32:13.812Z,13.56
2018-07-11T03:34:41.199Z,13.57
2018-07-11T03:37:08.650Z,13.58
2018-07-11T03:39:36.480Z,13.60
2018-07-11T03:42:04.582Z,13.60
2018-07-11T03:44:32.001Z,13.64
2018-07-11T03:46:59.373Z,13.71
2018-07-11T03:49:26.773Z,13.78
2018-07-11T03:51:54.463Z,13.83
2018-07-11T03:54:21.911Z,13.87
2018-07-11T03:56:49.317Z,13.81
2018-07-11T03:59:17.318Z,13.81
2018-07-11T04:01:44.685Z,13.78
2018-07-11T04:04:12.072Z,13.79
2018-07-11T04:06:39.507Z,13.77
2018-07-11T04:09:07.494Z,13.81
2018-07-11T04:11:35.681Z,13.78
2018-07-11T04:14:03.061Z,13.80
2018-07-11T04:16:30.461Z,13.78
2018-07-11T04:18:57.810Z,13.80
2018-07-11T04:21:25.136Z,13.79
2018-07-11T04:23:52.516Z,13.76
2018-07-11T04:26:19.934Z,13.78
2018-07-11T04:28:47.335Z,13.79
2018-07-11T04:31:14.789Z,13.82
2018-07-11T04:33:42.243Z,13.84
2018-07-11T04:36:09.699Z,13.88
2018-07-11T04:38:37.153Z,13.91
2018-07-11T04:41:05.167Z,13.93
2018-07-11T04:43:32.643Z,13.88
2018-07-11T04:46:00.097Z,13.85
2018-07-11T04:48:27.506Z,13.88
2018-07-11T04:50:54.918Z,13.91
2018-07-11T04:53:25.254Z,13.95
2018-07-11T04:55:57.336Z,13.96
2018-07-11T04:58:25.019Z,13.92
2018-07-11T05:00:52.337Z,13.85
2018-07-11T05:03:19.661Z,13.85
2018-07-11T05:05:47.030Z,13.90
2018-07-11T05:08:14.439Z,13.92
2018-07-11T05:10:41.791Z,13.97
2018-07-11T05:13:09.210Z,14.04
2018-07-11T05:15:36.623Z,14.06
2018-07-11T05:18:04.198Z,14.05
2018-07-11T05:20:31.502Z,14.00
2018-07-11T05:22:59.271Z,14.00
2018-07-11T05:25:27.258Z,14.06
2018-07-11T05:27:54.618Z,14.12
2018-07-11T05:30:21.959Z,14.19
2018-07-11T05:32:49.866Z,14.22
2018-07-11T05:35:17.214Z,14.26
2018-07-11T05:37:44.539Z,14.27
2018-07-11T05:40:12.633Z,14.30
2018-07-11T05:42:39.986Z,14.33
2018-07-11T05:45:07.482Z,14.33
2018-07-11T05:47:34.810Z,14.37
2018-07-11T05:50:02.176Z,14.38
2018-07-11T05:52:29.537Z,14.38
2018-07-11T05:54:57.084Z,14.35
2018-07-11T05:57:24.415Z,14.34
2018-07-11T05:59:51.787Z,14.35
2018-07-11T06:02:19.156Z,14.34
2018-07-11T06:04:46.536Z,14.29
2018-07-11T06:07:14.557Z,14.25
2018-07-11T06:09:41.932Z,14.22
2018-07-11T06:12:09.297Z,14.16
2018-07-11T06:14:36.717Z,14.14
2018-07-11T06:17:04.197Z,14.12
2018-07-11T06:19:31.546Z,14.08
2018-07-11T06:21:59.066Z,14.12
2018-07-11T06:24:26.429Z,14.21
2018-07-11T06:26:54.435Z,14.20
2018-07-11T06:29:22.478Z,14.12
2018-07-11T06:31:49.829Z,14.16
2018-07-11T06:34:17.227Z,14.19
2018-07-11T06:36:44.560Z,14.22
2018-07-11T06:39:12.005Z,14.25
2018-07-11T06:41:39.297Z,14.27
2018-07-11T06:44:06.678Z,14.30
2018-07-11T06:46:33.978Z,14.38
2018-07-11T06:49:02.179Z,14.44
2018-07-11T06:51:29.554Z,14.47
2018-07-11T06:53:57.796Z,14.51
2018-07-11T06:56:25.175Z,14.60
2018-07-11T06:58:52.555Z,14.64
2018-07-11T07:01:19.944Z,14.74
2018-07-11T07:03:47.871Z,14.85
2018-07-11T07:06:15.732Z,14.97
2018-07-11T07:08:43.178Z,15.18
2018-07-11T07:11:10.582Z,15.31
2018-07-11T07:13:39.546Z,15.53
2018-07-11T07:16:07.623Z,15.75
2018-07-11T07:18:35.066Z,16.02
2018-07-11T07:21:02.409Z,16.30
2018-07-11T07:23:29.762Z,16.58
2018-07-11T07:25:57.168Z,16.67
2018-07-11T07:28:24.581Z,16.91
2018-07-11T07:30:52.897Z,17.11
2018-07-11T07:33:20.299Z,17.33
2018-07-11T07:35:48.285Z,17.47
2018-07-11T07:38:15.703Z,17.67
2018-07-11T07:40:43.090Z,18.33
2018-07-11T07:43:10.520Z,18.67
2018-07-11T07:45:39.068Z,18.85
2018-07-11T07:48:06.576Z,18.84
2018-07-11T07:50:33.958Z,18.80
2018-07-11T07:53:01.333Z,19.11
2018-07-11T07:55:28.727Z,20.05
2018-07-11T07:57:56.125Z,20.40
2018-07-11T08:00:23.527Z,20.17
2018-07-11T08:02:50.888Z,20.04
2018-07-11T08:05:18.392Z,20.15
2018-07-11T08:07:45.741Z,20.57
2018-07-11T08:10:14.005Z,20.81
2018-07-11T08:12:41.479Z,20.87
2018-07-11T08:15:09.484Z,20.81
2018-07-11T08:17:37.090Z,20.65
2018-07-11T08:20:04.638Z,21.11
2018-07-11T08:23:12.271Z,21.78
2018-07-11T08:25:51.426Z,22.15
2018-07-11T08:32:36.283Z,21.30
2018-07-11T08:35:13.604Z,19.96
2018-07-11T08:37:58.410Z,19.58
2018-07-11T08:42:43.766Z,19.66
2018-07-11T08:45:36.219Z,19.99
2018-07-11T08:48:15.925Z,20.64
2018-07-11T08:51:00.396Z,20.90
2018-07-11T08:55:43.823Z,20.77
2018-07-11T08:58:23.521Z,20.20
2018-07-11T09:01:08.877Z,19.79
2018-07-11T09:06:02.783Z,19.56
2018-07-11T09:08:47.667Z,19.38
2018-07-11T09:11:43.168Z,19.34
2018-07-11T09:16:23.907Z,19.28
2018-07-11T09:21:25.214Z,19.10
2018-07-11T09:24:14.862Z,19.22
2018-07-11T09:26:42.212Z,19.31
2018-07-11T09:29:09.568Z,19.40
2018-07-11T09:31:37.620Z,19.30
2018-07-11T09:34:04.927Z,19.29
2018-07-11T09:36:32.329Z,19.23
2018-07-11T09:38:59.689Z,19.39
2018-07-11T09:41:27.117Z,19.67
2018-07-11T09:43:54.579Z,20.12
2018-07-11T09:46:21.967Z,20.52
2018-07-11T09:48:49.451Z,21.41
2018-07-11T09:51:16.853Z,22.12
2018-07-11T09:53:44.289Z,22.20
2018-07-11T09:56:11.677Z,22.21
2018-07-11T09:58:39.899Z,21.99
2018-07-11T10:01:27.849Z,21.91
2018-07-11T10:03:56.628Z,22.23
2018-07-11T10:06:25.175Z,22.68
2018-07-11T10:08:53.065Z,22.70
2018-07-11T10:11:20.582Z,22.59
2018-07-11T10:13:48.462Z,23.13
2018-07-11T10:16:16.424Z,23.89
2018-07-11T10:18:51.946Z,24.65
2018-07-11T10:21:19.289Z,24.99
2018-07-11T10:23:46.654Z,25.20
2018-07-11T10:26:14.014Z,25.47
2018-07-11T10:28:41.414Z,25.59
2018-07-11T10:31:09.985Z,25.60
2018-07-11T10:33:37.359Z,25.31
2018-07-11T10:36:05.717Z,25.43
2018-07-11T10:38:33.130Z,24.98
2018-07-11T10:41:00.454Z,25.01
2018-07-11T10:43:41.321Z,25.77
2018-07-11T10:46:08.684Z,25.92
2018-07-11T10:48:36.457Z,25.21
2018-07-11T10:51:03.999Z,24.28
2018-07-11T10:53:32.004Z,25.15
2018-07-11T10:55:59.362Z,25.41
2018-07-11T10:58:26.771Z,25.31
2018-07-11T11:01:05.695Z,25.70
2018-07-11T11:03:22.738Z,25.45
2018-07-11T11:05:50.113Z,24.46
2018-07-11T11:08:17.425Z,24.01
2018-07-11T11:10:44.811Z,23.51
2018-07-11T11:13:12.157Z,23.00
2018-07-11T11:15:39.571Z,22.47
2018-07-11T11:18:06.964Z,21.72
2018-07-11T11:20:34.445Z,21.55
2018-07-11T11:23:01.972Z,21.43
2018-07-11T11:25:29.402Z,21.22
2018-07-11T11:27:56.754Z,21.20
2018-07-11T11:30:24.144Z,21.19
2018-07-11T11:32:52.190Z,20.96
2018-07-11T11:35:19.611Z,20.85
2018-07-11T11:37:46.959Z,20.63
2018-07-11T11:40:14.469Z,20.18
2018-07-11T11:42:41.904Z,19.77
2018-07-11T11:45:09.848Z,19.18
2018-07-11T11:47:37.182Z,19.11
2018-07-11T11:50:05.731Z,19.20
2018-07-11T11:52:33.145Z,19.05
2018-07-11T11:55:00.570Z,19.21
2018-07-11T11:57:27.958Z,19.12
2018-07-11T11:59:56.216Z,18.96
2018-07-11T12:02:23.571Z,19.05
2018-07-11T12:04:51.024Z,19.28
2018-07-11T12:07:18.509Z,19.39
2018-07-11T12:09:46.718Z,19.65
2018-07-11T12:12:14.043Z,19.50
2018-07-11T12:14:41.420Z,19.02
2018-07-11T12:17:08.794Z,19.27
2018-07-11T12:19:36.199Z,19.22
2018-07-11T12:22:03.628Z,19.50
2018-07-11T12:24:31.060Z,19.50
2018-07-11T12:26:58.445Z,19.34
2018-07-11T12:29:25.835Z,19.15
2018-07-11T12:31:53.123Z,18.56
2018-07-11T12:34:20.462Z,18.33
2018-07-11T12:36:47.881Z,18.06
2018-07-11T12:39:15.642Z,18.28
2018-07-11T12:41:43.170Z,18.08
2018-07-11T12:44:10.552Z,18.00
2018-07-11T12:46:37.997Z,17.96
2018-07-11T12:49:06.305Z,18.00
2018-07-11T12:51:34.104Z,18.08
2018-07-11T12:54:01.933Z,18.13
2018-07-11T12:56:29.502Z,18.11
2018-07-11T12:58:57.815Z,18.56
2018-07-11T13:01:25.490Z,18.96
2018-07-11T13:03:55.135Z,19.33
2018-07-11T13:06:23.022Z,19.51
2018-07-11T13:08:50.430Z,19.79
2018-07-11T13:11:17.847Z,19.94
2018-07-11T13:13:48.243Z,19.94
2018-07-11T13:16:16.204Z,19.79
2018-07-11T13:18:43.461Z,20.09
2018-07-11T13:21:11.434Z,20.28
2018-07-11T13:23:38.781Z,20.31
2018-07-11T13:26:06.238Z,20.33
2018-07-11T13:28:33.562Z,20.47
2018-07-11T13:31:00.966Z,20.47
2018-07-11T13:33:28.349Z,20.69
2018-07-11T13:35:56.311Z,20.68
2018-07-11T13:38:23.620Z,20.81
2018-07-11T13:40:51.099Z,20.70
2018-07-11T13:43:18.475Z,20.80
2018-07-11T13:46:06.327Z,20.80
2018-07-11T13:48:33.719Z,21.04
2018-07-11T13:51:01.170Z,21.08
2018-07-11T13:53:28.449Z,21.23
2018-07-11T13:55:55.760Z,21.13
2018-07-11T13:58:23.016Z,21.05
2018-07-11T14:00:51.266Z,21.14
2018-07-11T14:03:19.307Z,21.07
2018-07-11T14:05:46.889Z,21.13
2018-07-11T14:08:14.269Z,21.18
2018-07-11T14:10:41.816Z,21.67
2018-07-11T14:13:09.386Z,21.96
2018-07-11T14:15:36.732Z,21.90
2018-07-11T14:18:04.252Z,22.51
2018-07-11T14:20:31.683Z,22.65
2018-07-11T14:23:06.521Z,22.42
2018-07-11T14:25:36.512Z,22.54
2018-07-11T14:28:03.980Z,22.31
2018-07-11T14:30:31.926Z,22.12
2018-07-11T14:33:03.209Z,21.97
2018-07-11T14:35:30.951Z,21.78
2018-07-11T14:37:58.320Z,21.48
2018-07-11T14:40:25.740Z,21.82
2018-07-11T14:42:53.142Z,21.80
2018-07-11T14:45:20.594Z,21.91
2018-07-11T14:47:53.786Z,22.13
2018-07-11T14:50:21.232Z,22.31
2018-07-11T14:52:48.730Z,22.24
2018-07-11T14:55:16.153Z,22.37
2018-07-11T14:57:43.578Z,22.43
2018-07-11T15:00:11.328Z,21.96
2018-07-11T15:02:38.790Z,21.89
2018-07-11T15:05:06.271Z,21.53
2018-07-11T15:07:33.638Z,21.29
2018-07-11T15:10:01.006Z,21.15
2018-07-11T15:12:28.427Z,21.05
2018-07-11T15:14:56.829Z,21.00
2018-07-11T15:17:24.266Z,20.81
2018-07-11T15:19:51.817Z,20.73
2018-07-11T15:22:19.702Z,20.62
2018-07-11T15:24:47.935Z,20.63
2018-07-11T15:27:15.474Z,20.53
2018-07-11T15:29:42.850Z,20.39
2018-07-11T15:32:10.361Z,20.25
2018-07-11T15:34:38.163Z,20.14
2018-07-11T15:37:05.670Z,20.06
2018-07-11T15:39:33.988Z,19.97
2018-07-11T15:42:02.586Z,19.96
2018-07-11T15:44:29.971Z,19.85
2018-07-11T15:46:57.355Z,19.69
2018-07-11T15:49:24.891Z,19.63
2018-07-11T15:51:52.362Z,19.62
2018-07-11T15:54:20.044Z,19.59
2018-07-11T15:56:47.343Z,19.55
2018-07-11T15:59:18.458Z,19.52
2018-07-11T16:01:51.837Z,19.33
2018-07-11T16:04:24.526Z,19.12
2018-07-11T16:06:51.916Z,19.06
2018-07-11T16:09:19.679Z,19.09
2018-07-11T16:11:47.066Z,19.10
2018-07-11T16:14:14.433Z,19.18
2018-07-11T16:16:41.872Z,19.23
2018-07-11T16:19:09.473Z,19.39
2018-07-11T16:21:36.830Z,19.64
2018-07-11T16:24:04.334Z,19.74
2018-07-11T16:26:31.745Z,19.94
2018-07-11T16:28:59.154Z,20.21
2018-07-11T16:31:26.617Z,20.50
2018-07-11T16:33:54.180Z,20.54
2018-07-11T16:36:21.567Z,20.48
2018-07-11T16:38:49.151Z,20.58
2018-07-11T16:41:17.317Z,20.55
2018-07-11T16:43:44.753Z,20.45
2018-07-11T16:46:12.775Z,20.28
2018-07-11T16:48:40.307Z,20.42
2018-07-11T16:51:07.761Z,20.30
2018-07-11T16:53:36.413Z,20.36
2018-07-11T16:56:04.312Z,20.47
2018-07-11T16:58:37.834Z,20.46
2018-07-11T17:01:05.482Z,20.26
2018-07-11T17:03:34.532Z,20.19
2018-07-11T17:06:05.294Z,20.26
2018-07-11T17:08:35.036Z,20.15
2018-07-11T17:11:14.915Z,19.93
2018-07-11T17:13:46.123Z,19.87
2018-07-11T17:16:13.503Z,19.78
2018-07-11T17:18:47.746Z,19.85
2018-07-11T17:21:28.602Z,19.87
2018-07-11T17:24:02.554Z,20.04
2018-07-11T17:26:30.001Z,19.86
2018-07-11T17:28:59.336Z,19.86
2018-07-11T17:31:27.003Z,19.86
2018-07-11T17:33:54.409Z,19.86
2018-07-11T17:36:21.799Z,19.91
2018-07-11T17:38:49.216Z,19.86
2018-07-11T17:41:17.082Z,19.80
2018-07-11T17:43:49.624Z,19.79
2018-07-11T17:46:20.143Z,19.71
2018-07-11T17:48:58.716Z,19.64
2018-07-11T17:51:40.366Z,19.55
2018-07-11T17:54:08.513Z,19.43
2018-07-11T17:56:47.482Z,19.37
2018-07-11T17:59:15.345Z,19.30
2018-07-11T18:01:48.367Z,19.17
2018-07-11T18:05:55.378Z,19.07
2018-07-11T18:08:28.348Z,18.97
2018-07-11T18:10:57.290Z,18.99
2018-07-11T18:13:26.485Z,19.04
2018-07-11T18:17:09.749Z,18.96
2018-07-11T18:20:55.425Z,18.88
2018-07-11T18:23:30.978Z,18.81
2018-07-11T18:26:06.844Z,18.82
2018-07-11T18:28:41.141Z,18.80
2018-07-11T18:31:19.691Z,18.76
2018-07-11T18:34:23.855Z,18.68
2018-07-11T18:37:24.514Z,18.63
2018-07-11T18:40:01.201Z,18.55
2018-07-11T18:42:41.546Z,18.48
2018-07-11T18:47:25.874Z,18.40
2018-07-11T18:50:12.703Z,18.35
2018-07-11T18:53:21.329Z,18.21
2018-07-11T18:56:04.067Z,18.02
2018-07-11T18:59:09.351Z,17.97
2018-07-11T19:01:50.036Z,17.85
2018-07-11T19:04:29.012Z,17.80
2018-07-11T19:07:09.242Z,17.70
2018-07-11T19:09:51.415Z,17.55
2018-07-11T19:12:27.301Z,17.48
2018-07-11T19:18:05.760Z,17.25
2018-07-11T19:20:42.722Z,17.14
2018-07-11T19:23:18.540Z,16.94
2018-07-11T19:26:00.346Z,16.81
2018-07-11T19:28:40.264Z,16.68
2018-07-11T19:33:22.610Z,16.66
2018-07-11T19:36:01.731Z,16.43
2018-07-11T19:38:40.900Z,16.39
2018-07-11T19:41:15.327Z,16.41
2018-07-11T19:44:21.581Z,16.37
2018-07-11T19:48:08.016Z,16.39
2018-07-11T19:50:46.969Z,16.41
2018-07-11T19:53:55.465Z,16.41
2018-07-11T19:56:36.278Z,16.42
2018-07-11T19:59:04.645Z,16.44
2018-07-11T20:01:32.663Z,16.40
2018-07-11T20:04:00.194Z,16.38
2018-07-11T20:06:27.842Z,16.43
2018-07-11T20:08:55.433Z,16.38
2018-07-11T20:11:24.262Z,16.36
2018-07-11T20:13:52.900Z,16.34
2018-07-11T20:16:21.373Z,16.32
2018-07-11T20:18:49.126Z,16.32
2018-07-11T20:21:17.226Z,16.31
2018-07-11T20:23:45.343Z,16.30
2018-07-11T20:26:13.231Z,16.25
2018-07-11T20:28:41.942Z,16.23
2018-07-11T20:31:09.589Z,16.22
2018-07-11T20:33:37.862Z,16.18
2018-07-11T20:36:07.600Z,16.18
2018-07-11T20:38:35.860Z,16.08
2018-07-11T20:41:03.308Z,16.04
2018-07-11T20:43:31.918Z,15.90
2018-07-11T20:46:00.064Z,15.77
2018-07-11T20:48:28.206Z,15.66
2018-07-11T20:50:55.766Z,15.62
2018-07-11T20:53:23.055Z,15.56
2018-07-11T20:55:50.326Z,15.50
2018-07-11T20:58:28.975Z,15.43
2018-07-11T21:03:13.457Z,15.43
2018-07-11T21:06:29.048Z,15.43
2018-07-11T21:11:09.003Z,15.39
2018-07-11T21:13:47.494Z,15.37
2018-07-11T21:17:34.801Z,15.35
2018-07-11T21:20:02.063Z,15.41
2018-07-11T21:22:29.290Z,15.46
2018-07-11T21:24:56.542Z,15.52
2018-07-11T21:27:23.794Z,15.50
2018-07-11T21:29:51.062Z,15.51
2018-07-11T21:32:18.291Z,15.51
2018-07-11T21:34:45.566Z,15.50
2018-07-11T21:37:12.809Z,15.54
2018-07-11T21:39:40.091Z,15.57
2018-07-11T21:42:07.367Z,15.58
2018-07-11T21:44:34.621Z,15.57
2018-07-11T21:47:01.871Z,15.61
2018-07-11T21:49:29.136Z,15.60
2018-07-11T21:51:56.419Z,15.61
2018-07-11T21:54:23.694Z,15.58
2018-07-11T21:56:50.907Z,15.48
2018-07-11T21:59:18.144Z,15.42
2018-07-11T22:01:45.415Z,15.33
2018-07-11T22:04:12.685Z,15.29
2018-07-11T22:06:39.947Z,15.21
2018-07-11T22:09:07.270Z,15.17
2018-07-11T22:11:34.567Z,15.18
2018-07-11T22:14:01.922Z,15.19
2018-07-11T22:16:29.192Z,15.12
2018-07-11T22:18:56.432Z,15.09
2018-07-11T22:21:22.699Z,15.07
2018-07-11T22:23:48.951Z,15.02
2018-07-11T22:26:15.220Z,14.95
2018-07-11T22:28:41.461Z,14.91
2018-07-11T22:31:07.933Z,14.88
2018-07-11T22:33:34.187Z,14.84
2018-07-11T22:36:00.451Z,14.83
2018-07-11T22:38:26.707Z,14.76
2018-07-11T22:40:52.935Z,14.71
2018-07-11T22:43:19.208Z,14.66
2018-07-11T22:45:45.444Z,14.63
2018-07-11T22:48:11.703Z,14.56
2018-07-11T22:50:37.960Z,14.53
2018-07-11T22:53:04.219Z,14.48
2018-07-11T22:55:30.456Z,14.35
2018-07-11T22:57:56.718Z,14.26
2018-07-11T23:00:22.991Z,14.14
2018-07-11T23:02:49.243Z,14.00
2018-07-11T23:05:15.507Z,13.88
2018-07-11T23:07:41.755Z,13.85
2018-07-11T23:10:08.067Z,13.82
2018-07-11T23:12:34.311Z,13.79
2018-07-11T23:15:00.588Z,13.73
2018-07-11T23:17:26.815Z,13.70
2018-07-11T23:19:53.146Z,13.62
2018-07-11T23:22:19.399Z,13.53
2018-07-11T23:24:45.640Z,13.45
2018-07-11T23:27:11.886Z,13.36
2018-07-11T23:29:38.139Z,13.30
2018-07-11T23:32:04.376Z,13.29
2018-07-11T23:34:30.646Z,13.30
2018-07-11T23:36:56.890Z,13.30
2018-07-11T23:39:23.163Z,13.30
2018-07-11T23:41:49.482Z,13.24
2018-07-11T23:44:15.764Z,13.22
2018-07-11T23:46:41.994Z,13.21
2018-07-11T23:49:08.276Z,13.16
2018-07-11T23:51:34.489Z,13.25
2018-07-11T23:54:00.745Z,13.26
2018-07-11T23:56:26.982Z,13.24
2018-07-11T23:58:53.241Z,13.26
